Alpena, South Dakota
Current Conditions -  °F | °C
As of 12:55 PM on Monday 20 Oct 2014 (Local Time) from KHON Reporting Station
Clear Clear  
Wind Chill: 68°   Ceiling: Unl
Heat Index: 68°   Visibility: 10mi
Dew Point: 38°   Wind: 3mph
Humidity: 33%   Direction: NA
Pressure: 30.09"   Gusts: NA
Location:  44.18°N, 98.37°W
Report Text: KHON 201755Z AUTO VRB03KT 10SM CLR 20/03 A3009 RMK AO2 SLP191 T02000033 10200 21006 58009
Loading
Personal Weather Stations






























Interactive Weather Map
Tropical Storm Tracking
New forecast layout! Learn more

10-Day Weather Forecast

Advertisements
Track Severe Weather on mobile